Huvudsida
METAR-TAF:

METAR-TAF

Flygplatser :

Najran, Saudiarabien

latitud: 17-37N, longitud: 044-25E, höjd: 1212 m

Aktuellt väderrapport

Denna rapport gjordes för 33 minuter sedan, klockan 19:00 UTC
Vind 4 kt från ost
Temperatur 21°C
Fuktighet 38%
Tryck 1018 hPa
Sikt 10 km eller mer
Inga moln under 1 500 m eller inga cumulonimbus

METAR: OENG 111900Z 08004KT CAVOK 21/06 Q1018 NOSIG

Tid: 22:33 (19:33 UTC)

Väderprognos

Denna rapport gjordes för 8 timmar och 33 minuter sedan, klockan 11:00 UTC
Prognos gäller från 11 kl. 12 UTC till 12 kl. 18 UTC
Vind 12 kt från ost
Sikt 10 km eller mer
Inga moln under 1 500 m eller inga cumulonimbus
Blir
från 11 kl. 18 UTC till 11 kl. 20 UTC
Vind 3 kt varierande vindriktning

TAF: OENG 111100Z 1112/1218 09012KT CAVOK BECMG 1118/1120 VRB03KT

Aktuella väderrapporter och prognoser från 4000 flygplatser (METAR- och TAF-rapporter).

De tillgängliga stationerna syns som gula och röda prickar på kartan.

För musen över prickarna för att se namnen på stationerna.

Klicka sedan för att få väderrapporter och prognoser.

För att ändra kartan: Klicka på de gröna knapparna med ett svart kors på för att zooma in; den gröna knappen med ett streck på för att zooma ut; eller på de gröna pilarna för angränsande kartor.


METAR-TAF: